Terminal Aerodrome Forecast
Issued by NWS

Home | Current Version | Previous Version | Text Only | Print | Product List | Glossary On
Versions: 1 2 3 4 5 6 7 8 9 10 11 12 13 14
000
FTUS43 KFGF 290520
TAFBJI
TAF
KBJI 290520Z 2906/3006 20015G21KT P6SM -RA OVC040
     FM290900 30010KT P6SM BKN050
     FM291500 35015G24KT P6SM BKN012
     FM292000 36016G24KT P6SM BKN025
     FM300400 33013G20KT P6SM SCT025=

USA.gov is the U.S. government's official web portal to all federal, state and local government web resources and services.